sensor_id;sensor_type;location;lat;lon;timestamp;pressure;altitude;pressure_sealevel;temperature;humidity
45523;BME280;31254;51.680;5.394;2022-12-10T00:01:16;100933.72;;;-1.34;91.10
45523;BME280;31254;51.680;5.394;2022-12-10T00:03:44;100919.44;;;-1.35;90.67
45523;BME280;31254;51.680;5.394;2022-12-10T00:06:13;100923.72;;;-1.31;91.22
45523;BME280;31254;51.680;5.394;2022-12-10T00:08:40;100913.75;;;-1.27;91.14
45523;BME280;31254;51.680;5.394;2022-12-10T00:11:11;100925.09;;;-1.22;90.69
45523;BME280;31254;51.680;5.394;2022-12-10T00:13:41;100929.59;;;-1.22;90.55
45523;BME280;31254;51.680;5.394;2022-12-10T00:16:10;100935.66;;;-1.19;90.85
45523;BME280;31254;51.680;5.394;2022-12-10T00:18:40;100929.38;;;-1.18;91.14
45523;BME280;31254;51.680;5.394;2022-12-10T00:21:19;100932.91;;;-1.17;90.67
45523;BME280;31254;51.680;5.394;2022-12-10T00:23:46;100933.88;;;-1.18;90.59
45523;BME280;31254;51.680;5.394;2022-12-10T00:26:15;100933.88;;;-1.18;90.97
45523;BME280;31254;51.680;5.394;2022-12-10T00:28:47;100930.16;;;-1.16;90.96
45523;BME280;31254;51.680;5.394;2022-12-10T00:31:16;100933.63;;;-1.14;90.42
45523;BME280;31254;51.680;5.394;2022-12-10T00:33:44;100935.38;;;-1.13;90.25
45523;BME280;31254;51.680;5.394;2022-12-10T00:36:26;100914.38;;;-1.22;90.37
45523;BME280;31254;51.680;5.394;2022-12-10T00:38:53;100924.66;;;-1.13;90.52
45523;BME280;31254;51.680;5.394;2022-12-10T00:41:20;100923.88;;;-1.15;90.69
45523;BME280;31254;51.680;5.394;2022-12-10T00:43:47;100926.41;;;-1.12;90.21
45523;BME280;31254;51.680;5.394;2022-12-10T00:46:15;100933.47;;;-1.11;90.85
45523;BME280;31254;51.680;5.394;2022-12-10T00:48:43;100935.38;;;-1.13;90.83
45523;BME280;31254;51.680;5.394;2022-12-10T00:51:14;100936.38;;;-1.15;90.45
45523;BME280;31254;51.680;5.394;2022-12-10T00:53:42;100928.41;;;-1.17;90.68
45523;BME280;31254;51.680;5.394;2022-12-10T00:56:10;100936.44;;;-1.17;91.01
45523;BME280;31254;51.680;5.394;2022-12-10T00:58:38;100923.38;;;-1.23;90.34
45523;BME280;31254;51.680;5.394;2022-12-10T01:01:13;100930.44;;;-1.22;91.34
45523;BME280;31254;51.680;5.394;2022-12-10T01:03:41;100921.78;;;-1.27;90.63
45523;BME280;31254;51.680;5.394;2022-12-10T01:06:29;100923.22;;;-1.20;90.78
45523;BME280;31254;51.680;5.394;2022-12-10T01:09:03;100915.13;;;-1.18;90.69
45523;BME280;31254;51.680;5.394;2022-12-10T01:11:32;100917.72;;;-1.17;90.51
45523;BME280;31254;51.680;5.394;2022-12-10T01:13:59;100918.66;;;-1.18;90.90
45523;BME280;31254;51.680;5.394;2022-12-10T01:16:26;100917.72;;;-1.17;90.94
45523;BME280;31254;51.680;5.394;2022-12-10T01:18:54;100927.34;;;-1.13;91.03
45523;BME280;31254;51.680;5.394;2022-12-10T01:21:24;100920.91;;;-1.08;90.49
45523;BME280;31254;51.680;5.394;2022-12-10T01:23:52;100919.81;;;-1.04;90.55
45523;BME280;31254;51.680;5.394;2022-12-10T01:26:21;100907.19;;;-1.02;90.11
45523;BME280;31254;51.680;5.394;2022-12-10T01:28:49;100918.47;;;-0.96;89.87
45523;BME280;31254;51.680;5.394;2022-12-10T01:31:19;100912.19;;;-0.95;90.46
45523;BME280;31254;51.680;5.394;2022-12-10T01:33:46;100910.38;;;-0.94;89.80
45523;BME280;31254;51.680;5.394;2022-12-10T01:36:19;100905.19;;;-0.97;89.96
45523;BME280;31254;51.680;5.394;2022-12-10T01:38:52;100917.19;;;-0.87;89.87
45523;BME280;31254;51.680;5.394;2022-12-10T01:41:28;100917.97;;;-0.85;90.10
45523;BME280;31254;51.680;5.394;2022-12-10T01:43:59;100917.69;;;-0.79;89.63
45523;BME280;31254;51.680;5.394;2022-12-10T01:46:31;100918.75;;;-0.83;89.98
45523;BME280;31254;51.680;5.394;2022-12-10T01:49:00;100925.63;;;-0.77;89.59
45523;BME280;31254;51.680;5.394;2022-12-10T01:51:30;100931.72;;;-0.74;89.51
45523;BME280;31254;51.680;5.394;2022-12-10T01:53:56;100920.44;;;-0.80;89.43
45523;BME280;31254;51.680;5.394;2022-12-10T01:56:26;100923.91;;;-0.78;89.79
45523;BME280;31254;51.680;5.394;2022-12-10T01:58:55;100942.44;;;-0.74;89.39
45523;BME280;31254;51.680;5.394;2022-12-10T02:01:40;100943.34;;;-0.75;89.09
45523;BME280;31254;51.680;5.394;2022-12-10T02:15:27;100931.88;;;-0.96;90.04
45523;BME280;31254;51.680;5.394;2022-12-10T02:18:04;100946.00;;;-0.92;90.25
45523;BME280;31254;51.680;5.394;2022-12-10T02:20:48;100946.16;;;-0.95;89.83
45523;BME280;31254;51.680;5.394;2022-12-10T02:23:21;100942.75;;;-0.99;90.08
45523;BME280;31254;51.680;5.394;2022-12-10T02:28:33;100941.22;;;-1.04;90.14
45523;BME280;31254;51.680;5.394;2022-12-10T02:31:04;100939.56;;;-1.07;90.65
45523;BME280;31254;51.680;5.394;2022-12-10T02:33:32;100936.31;;;-1.14;90.20
45523;BME280;31254;51.680;5.394;2022-12-10T02:36:02;100936.44;;;-1.17;90.96
45523;BME280;31254;51.680;5.394;2022-12-10T02:38:32;100941.09;;;-1.20;90.91
45523;BME280;31254;51.680;5.394;2022-12-10T02:41:04;100938.88;;;-1.30;91.04
45523;BME280;31254;51.680;5.394;2022-12-10T02:43:32;100944.88;;;-1.24;91.03
45523;BME280;31254;51.680;5.394;2022-12-10T02:46:02;100934.38;;;-1.29;90.43
45523;BME280;31254;51.680;5.394;2022-12-10T02:48:31;100951.88;;;-1.22;90.75
45523;BME280;31254;51.680;5.394;2022-12-10T02:50:59;100947.47;;;-1.23;90.82
45523;BME280;31254;51.680;5.394;2022-12-10T02:53:25;100950.78;;;-1.18;90.81
45523;BME280;31254;51.680;5.394;2022-12-10T02:56:13;100952.44;;;-1.15;90.32
45523;BME280;31254;51.680;5.394;2022-12-10T03:07:02;100964.75;;;-1.11;89.58
45523;BME280;31254;51.680;5.394;2022-12-10T03:09:37;100960.13;;;-1.07;89.77
45523;BME280;31254;51.680;5.394;2022-12-10T03:12:17;100927.78;;;-1.22;89.88
45523;BME280;31254;51.680;5.394;2022-12-10T03:14:45;100957.31;;;-1.04;89.92
45523;BME280;31254;51.680;5.394;2022-12-10T03:17:13;100943.91;;;-1.04;89.40
45523;BME280;31254;51.680;5.394;2022-12-10T03:19:44;100944.63;;;-1.01;89.50
45523;BME280;31254;51.680;5.394;2022-12-10T03:22:13;100947.31;;;-1.01;89.61
45523;BME280;31254;51.680;5.394;2022-12-10T03:24:43;100956.16;;;-0.99;89.02
45523;BME280;31254;51.680;5.394;2022-12-10T03:27:14;100938.41;;;-1.01;89.10
45523;BME280;31254;51.680;5.394;2022-12-10T03:29:47;100954.91;;;-0.92;89.56
45523;BME280;31254;51.680;5.394;2022-12-10T03:32:16;100952.31;;;-0.93;88.70
45523;BME280;31254;51.680;5.394;2022-12-10T03:34:43;100940.00;;;-0.97;89.30
45523;BME280;31254;51.680;5.394;2022-12-10T03:37:12;100944.34;;;-0.95;89.13
45523;BME280;31254;51.680;5.394;2022-12-10T03:39:40;100947.66;;;-0.89;89.21
45523;BME280;31254;51.680;5.394;2022-12-10T03:42:08;100953.84;;;-0.87;89.50
45523;BME280;31254;51.680;5.394;2022-12-10T03:44:36;100937.66;;;-0.86;88.53
45523;BME280;31254;51.680;5.394;2022-12-10T03:47:08;100940.59;;;-0.90;88.63
45523;BME280;31254;51.680;5.394;2022-12-10T03:49:36;100940.50;;;-0.89;88.73
45523;BME280;31254;51.680;5.394;2022-12-10T03:52:03;100951.88;;;-0.84;88.65
45523;BME280;31254;51.680;5.394;2022-12-10T03:54:30;100944.13;;;-0.90;88.90
45523;BME280;31254;51.680;5.394;2022-12-10T03:56:56;100951.22;;;-0.89;88.86
45523;BME280;31254;51.680;5.394;2022-12-10T03:59:25;100954.53;;;-0.84;88.96
45523;BME280;31254;51.680;5.394;2022-12-10T04:01:54;100948.09;;;-0.80;88.53
45523;BME280;31254;51.680;5.394;2022-12-10T04:04:23;100956.75;;;-0.75;88.65
45523;BME280;31254;51.680;5.394;2022-12-10T04:06:50;100960.41;;;-0.76;88.48
45523;BME280;31254;51.680;5.394;2022-12-10T04:09:17;100953.38;;;-0.78;88.82
45523;BME280;31254;51.680;5.394;2022-12-10T04:11:43;100956.75;;;-0.75;88.64
45523;BME280;31254;51.680;5.394;2022-12-10T04:14:11;100965.59;;;-0.72;88.69
45523;BME280;31254;51.680;5.394;2022-12-10T04:16:57;100971.03;;;-0.74;88.95
45523;BME280;31254;51.680;5.394;2022-12-10T04:19:24;100969.22;;;-0.74;88.33
45523;BME280;31254;51.680;5.394;2022-12-10T04:21:51;100969.28;;;-0.75;89.04
45523;BME280;31254;51.680;5.394;2022-12-10T04:24:38;100964.56;;;-0.70;88.91
45523;BME280;31254;51.680;5.394;2022-12-10T04:29:53;100970.59;;;-0.65;88.87
45523;BME280;31254;51.680;5.394;2022-12-10T04:32:23;100960.66;;;-0.63;88.99
45523;BME280;31254;51.680;5.394;2022-12-10T04:34:50;100935.44;;;-0.76;89.29
45523;BME280;31254;51.680;5.394;2022-12-10T04:37:17;100964.84;;;-0.57;89.06
45523;BME280;31254;51.680;5.394;2022-12-10T04:39:48;100976.38;;;-0.55;88.68
45523;BME280;31254;51.680;5.394;2022-12-10T04:42:15;100976.28;;;-0.53;88.81
45523;BME280;31254;51.680;5.394;2022-12-10T04:44:42;100973.69;;;-0.55;88.72
45523;BME280;31254;51.680;5.394;2022-12-10T04:47:12;100973.69;;;-0.55;89.27
45523;BME280;31254;51.680;5.394;2022-12-10T04:49:42;100974.41;;;-0.51;89.23
45523;BME280;31254;51.680;5.394;2022-12-10T04:52:12;100968.91;;;-0.48;88.75
45523;BME280;31254;51.680;5.394;2022-12-10T04:54:40;100973.22;;;-0.46;88.98
45523;BME280;31254;51.680;5.394;2022-12-10T04:57:07;100973.94;;;-0.42;89.14
45523;BME280;31254;51.680;5.394;2022-12-10T04:59:35;100967.16;;;-0.49;89.11
45523;BME280;31254;51.680;5.394;2022-12-10T05:02:05;100973.44;;;-0.50;88.85
45523;BME280;31254;51.680;5.394;2022-12-10T05:04:32;100968.16;;;-0.52;89.27
45523;BME280;31254;51.680;5.394;2022-12-10T05:06:59;100972.38;;;-0.46;88.77
45523;BME280;31254;51.680;5.394;2022-12-10T05:09:26;100974.03;;;-0.44;88.98
45523;BME280;31254;51.680;5.394;2022-12-10T05:11:52;100980.19;;;-0.42;89.33
45523;BME280;31254;51.680;5.394;2022-12-10T05:14:19;100978.34;;;-0.41;89.17
45523;BME280;31254;51.680;5.394;2022-12-10T05:16:49;100982.06;;;-0.44;88.99
45523;BME280;31254;51.680;5.394;2022-12-10T05:19:16;100981.13;;;-0.43;89.33
45523;BME280;31254;51.680;5.394;2022-12-10T05:21:42;100979.63;;;-0.48;88.84
45523;BME280;31254;51.680;5.394;2022-12-10T05:24:27;100984.00;;;-0.47;88.90
45523;BME280;31254;51.680;5.394;2022-12-10T05:26:54;100993.03;;;-0.48;88.95
45523;BME280;31254;51.680;5.394;2022-12-10T05:29:21;100981.41;;;-0.49;89.31
45523;BME280;31254;51.680;5.394;2022-12-10T05:31:49;100983.31;;;-0.51;89.08
45523;BME280;31254;51.680;5.394;2022-12-10T05:34:16;100973.69;;;-0.55;89.06
45523;BME280;31254;51.680;5.394;2022-12-10T05:36:45;100979.84;;;-0.53;89.04
45523;BME280;31254;51.680;5.394;2022-12-10T05:39:12;100979.84;;;-0.53;89.05
45523;BME280;31254;51.680;5.394;2022-12-10T05:41:40;100987.66;;;-0.48;88.85
45523;BME280;31254;51.680;5.394;2022-12-10T05:44:07;100973.22;;;-0.46;89.03
45523;BME280;31254;51.680;5.394;2022-12-10T05:46:35;100973.06;;;-0.43;88.75
45523;BME280;31254;51.680;5.394;2022-12-10T05:49:04;100960.63;;;-0.44;89.25
45523;BME280;31254;51.680;5.394;2022-12-10T05:51:32;100973.63;;;-0.36;89.14
45523;BME280;31254;51.680;5.394;2022-12-10T05:54:02;100983.97;;;-0.28;88.84
45523;BME280;31254;51.680;5.394;2022-12-10T05:56:30;100976.09;;;-0.31;89.29
45523;BME280;31254;51.680;5.394;2022-12-10T05:58:59;100971.75;;;-0.34;89.19
45523;BME280;31254;51.680;5.394;2022-12-10T06:01:29;100980.59;;;-0.32;89.31
45523;BME280;31254;51.680;5.394;2022-12-10T06:03:57;100972.78;;;-0.37;89.28
45523;BME280;31254;51.680;5.394;2022-12-10T06:06:29;100981.75;;;-0.38;89.38
45523;BME280;31254;51.680;5.394;2022-12-10T06:08:56;100983.28;;;-0.32;89.21
45523;BME280;31254;51.680;5.394;2022-12-10T06:11:24;100991.16;;;-0.29;89.38
45523;BME280;31254;51.680;5.394;2022-12-10T06:13:50;100979.63;;;-0.31;89.36
45523;BME280;31254;51.680;5.394;2022-12-10T06:16:22;100993.78;;;-0.27;89.03
45523;BME280;31254;51.680;5.394;2022-12-10T06:18:49;101000.13;;;-0.30;89.11
45523;BME280;31254;51.680;5.394;2022-12-10T06:21:16;100991.31;;;-0.32;88.90
45523;BME280;31254;51.680;5.394;2022-12-10T06:23:44;100983.56;;;-0.38;89.11
45523;BME280;31254;51.680;5.394;2022-12-10T06:26:13;100991.31;;;-0.32;89.21
45523;BME280;31254;51.680;5.394;2022-12-10T06:28:47;100989.72;;;-0.36;89.13
45523;BME280;31254;51.680;5.394;2022-12-10T06:31:14;100998.56;;;-0.34;89.46
45523;BME280;31254;51.680;5.394;2022-12-10T06:33:44;101001.19;;;-0.32;89.38
45523;BME280;31254;51.680;5.394;2022-12-10T06:36:13;100998.41;;;-0.31;89.41
45523;BME280;31254;51.680;5.394;2022-12-10T06:38:41;101003.59;;;-0.28;89.45
45523;BME280;31254;51.680;5.394;2022-12-10T06:41:10;100996.69;;;-0.32;88.91
45523;BME280;31254;51.680;5.394;2022-12-10T06:43:37;101007.97;;;-0.25;89.25
45523;BME280;31254;51.680;5.394;2022-12-10T06:46:15;101007.09;;;-0.26;89.51
45523;BME280;31254;51.680;5.394;2022-12-10T06:48:43;101012.31;;;-0.23;89.46
45523;BME280;31254;51.680;5.394;2022-12-10T06:51:11;101008.88;;;-0.26;89.41
45523;BME280;31254;51.680;5.394;2022-12-10T06:53:41;101007.25;;;-0.29;89.32
45523;BME280;31254;51.680;5.394;2022-12-10T06:56:12;101013.31;;;-0.25;89.34
45523;BME280;31254;51.680;5.394;2022-12-10T06:58:40;101015.94;;;-0.24;89.29
45523;BME280;31254;51.680;5.394;2022-12-10T07:01:22;101015.00;;;-0.23;88.98
45523;BME280;31254;51.680;5.394;2022-12-10T07:03:54;100993.03;;;-0.31;89.01
45523;BME280;31254;51.680;5.394;2022-12-10T07:06:21;101010.63;;;-0.25;89.22
45523;BME280;31254;51.680;5.394;2022-12-10T07:08:51;101015.94;;;-0.24;89.09
45523;BME280;31254;51.680;5.394;2022-12-10T07:11:20;101014.88;;;-0.21;89.57
45523;BME280;31254;51.680;5.394;2022-12-10T07:13:47;101014.88;;;-0.21;89.18
45523;BME280;31254;51.680;5.394;2022-12-10T07:16:20;101019.09;;;-0.15;89.71
45523;BME280;31254;51.680;5.394;2022-12-10T07:18:48;101007.81;;;-0.22;89.39
45523;BME280;31254;51.680;5.394;2022-12-10T07:23:51;101029.81;;;-0.15;89.29
45523;BME280;31254;51.680;5.394;2022-12-10T07:26:20;101028.06;;;-0.16;89.27
45523;BME280;31254;51.680;5.394;2022-12-10T07:28:47;101032.50;;;-0.15;89.41
45523;BME280;31254;51.680;5.394;2022-12-10T07:31:20;101031.50;;;-0.13;89.29
45523;BME280;31254;51.680;5.394;2022-12-10T07:33:47;101034.97;;;-0.11;88.96
45523;BME280;31254;51.680;5.394;2022-12-10T07:36:14;101035.91;;;-0.12;89.19
45523;BME280;31254;51.680;5.394;2022-12-10T07:38:41;101031.66;;;-0.16;89.45
45523;BME280;31254;51.680;5.394;2022-12-10T07:41:12;101048.16;;;-0.06;89.37
45523;BME280;31254;51.680;5.394;2022-12-10T07:43:40;101044.41;;;-0.04;89.40
45523;BME280;31254;51.680;5.394;2022-12-10T07:46:13;101046.25;;;-0.04;89.60
45523;BME280;31254;51.680;5.394;2022-12-10T07:48:42;101059.34;;;0.02;89.72
45523;BME280;31254;51.680;5.394;2022-12-10T07:51:09;101053.09;;;0.02;89.49
45523;BME280;31254;51.680;5.394;2022-12-10T07:53:36;101048.78;;;-0.01;89.79
45523;BME280;31254;51.680;5.394;2022-12-10T07:56:03;101033.22;;;-0.12;89.12
45523;BME280;31254;51.680;5.394;2022-12-10T07:58:31;101054.84;;;0.03;89.39
45523;BME280;31254;51.680;5.394;2022-12-10T08:00:58;101073.31;;;0.09;89.64
45523;BME280;31254;51.680;5.394;2022-12-10T08:03:25;101069.78;;;0.08;89.62
45523;BME280;31254;51.680;5.394;2022-12-10T08:06:05;101064.50;;;0.07;89.60
45523;BME280;31254;51.680;5.394;2022-12-10T08:08:33;101065.28;;;0.09;89.45
45523;BME280;31254;51.680;5.394;2022-12-10T08:11:01;101076.00;;;0.09;89.63
45523;BME280;31254;51.680;5.394;2022-12-10T08:13:28;101066.38;;;0.05;89.70
45523;BME280;31254;51.680;5.394;2022-12-10T08:16:02;101071.66;;;0.06;89.58
45523;BME280;31254;51.680;5.394;2022-12-10T08:18:33;101078.78;;;0.07;89.49
45523;BME280;31254;51.680;5.394;2022-12-10T08:21:06;101065.81;;;-0.02;89.34
45523;BME280;31254;51.680;5.394;2022-12-10T08:23:34;101081.53;;;0.06;89.41
45523;BME280;31254;51.680;5.394;2022-12-10T08:26:11;101086.19;;;0.02;89.05
45523;BME280;31254;51.680;5.394;2022-12-10T08:28:38;101069.38;;;-0.02;89.72
45523;BME280;31254;51.680;5.394;2022-12-10T08:31:07;101086.66;;;0.10;89.27
45523;BME280;31254;51.680;5.394;2022-12-10T08:33:34;101083.19;;;0.08;89.24
45523;BME280;31254;51.680;5.394;2022-12-10T08:36:05;101085.63;;;0.13;89.45
45523;BME280;31254;51.680;5.394;2022-12-10T08:38:31;101100.34;;;0.23;89.43
45523;BME280;31254;51.680;5.394;2022-12-10T08:40:58;101109.16;;;0.25;89.16
45523;BME280;31254;51.680;5.394;2022-12-10T08:43:30;101094.19;;;0.21;89.41
45523;BME280;31254;51.680;5.394;2022-12-10T08:46:02;101107.13;;;0.30;89.36
45523;BME280;31254;51.680;5.394;2022-12-10T08:48:30;101098.34;;;0.27;89.32
45523;BME280;31254;51.680;5.394;2022-12-10T08:50:57;101110.69;;;0.31;89.27
45523;BME280;31254;51.680;5.394;2022-12-10T08:53:26;101102.63;;;0.31;89.36
45523;BME280;31254;51.680;5.394;2022-12-10T08:55:55;101094.81;;;0.26;89.24
45523;BME280;31254;51.680;5.394;2022-12-10T08:58:22;101101.66;;;0.32;89.17
45523;BME280;31254;51.680;5.394;2022-12-10T09:00:51;101100.88;;;0.30;89.03
45523;BME280;31254;51.680;5.394;2022-12-10T09:03:18;101106.81;;;0.36;88.73
45523;BME280;31254;51.680;5.394;2022-12-10T09:05:45;101101.44;;;0.36;88.99
45523;BME280;31254;51.680;5.394;2022-12-10T09:08:12;101104.84;;;0.40;88.90
45523;BME280;31254;51.680;5.394;2022-12-10T09:10:45;101098.75;;;0.36;88.85
45523;BME280;31254;51.680;5.394;2022-12-10T09:13:15;101102.38;;;0.35;88.89
45523;BME280;31254;51.680;5.394;2022-12-10T09:15:49;101084.16;;;0.25;88.69
45523;BME280;31254;51.680;5.394;2022-12-10T09:18:15;101087.16;;;0.18;88.75
45523;BME280;31254;51.680;5.394;2022-12-10T09:20:42;101113.44;;;0.29;88.81
45523;BME280;31254;51.680;5.394;2022-12-10T09:23:09;101124.13;;;0.31;88.93
45523;BME280;31254;51.680;5.394;2022-12-10T09:25:35;101124.81;;;0.34;88.79
45523;BME280;31254;51.680;5.394;2022-12-10T09:28:02;101128.28;;;0.36;88.65
45523;BME280;31254;51.680;5.394;2022-12-10T09:30:28;101128.13;;;0.40;88.79
45523;BME280;31254;51.680;5.394;2022-12-10T09:32:55;101134.66;;;0.34;88.92
45523;BME280;31254;51.680;5.394;2022-12-10T09:35:22;101139.97;;;0.35;88.64
45523;BME280;31254;51.680;5.394;2022-12-10T09:37:48;101124.00;;;0.32;88.77
45523;BME280;31254;51.680;5.394;2022-12-10T09:40:16;101123.69;;;0.39;88.79
45523;BME280;31254;51.680;5.394;2022-12-10T09:51:05;101144.41;;;0.54;88.44
45523;BME280;31254;51.680;5.394;2022-12-10T09:53:36;101143.28;;;0.58;88.42
45523;BME280;31254;51.680;5.394;2022-12-10T09:56:19;101135.91;;;0.63;88.30
45523;BME280;31254;51.680;5.394;2022-12-10T09:58:47;101148.19;;;0.67;88.15
45523;BME280;31254;51.680;5.394;2022-12-10T10:01:16;101150.66;;;0.72;88.62
45523;BME280;31254;51.680;5.394;2022-12-10T10:03:44;101146.13;;;0.72;88.25
45523;BME280;31254;51.680;5.394;2022-12-10T10:06:14;101139.06;;;0.71;88.56
45523;BME280;31254;51.680;5.394;2022-12-10T10:08:53;101145.03;;;0.77;88.59
45523;BME280;31254;51.680;5.394;2022-12-10T10:11:24;101152.72;;;0.84;88.89
45523;BME280;31254;51.680;5.394;2022-12-10T10:16:35;101159.34;;;0.95;88.37
45523;BME280;31254;51.680;5.394;2022-12-10T10:19:14;101160.19;;;0.95;88.21
45523;BME280;31254;51.680;5.394;2022-12-10T10:21:44;101152.22;;;0.94;88.21
45523;BME280;31254;51.680;5.394;2022-12-10T10:24:23;101165.41;;;0.98;88.38
45523;BME280;31254;51.680;5.394;2022-12-10T10:26:57;101154.75;;;0.97;88.54
45523;BME280;31254;51.680;5.394;2022-12-10T10:29:26;101160.97;;;0.97;88.53
45523;BME280;31254;51.680;5.394;2022-12-10T10:32:25;101153.03;;;0.96;88.71
45523;BME280;31254;51.680;5.394;2022-12-10T10:34:58;101159.88;;;1.01;87.90
45523;BME280;31254;51.680;5.394;2022-12-10T10:37:27;101132.47;;;0.95;87.82
45523;BME280;31254;51.680;5.394;2022-12-10T10:39:56;101152.50;;;1.05;88.24
45523;BME280;31254;51.680;5.394;2022-12-10T10:42:43;101146.91;;;1.09;88.29
45523;BME280;31254;51.680;5.394;2022-12-10T10:45:34;101146.75;;;1.13;87.86
45523;BME280;31254;51.680;5.394;2022-12-10T10:48:16;101144.84;;;1.15;87.83
45523;BME280;31254;51.680;5.394;2022-12-10T10:50:51;101152.13;;;1.13;87.68
45523;BME280;31254;51.680;5.394;2022-12-10T10:53:29;101143.50;;;1.06;87.53
45523;BME280;31254;51.680;5.394;2022-12-10T10:56:01;101149.13;;;1.01;87.76
45523;BME280;31254;51.680;5.394;2022-12-10T10:58:31;101150.78;;;1.04;88.10
45523;BME280;31254;51.680;5.394;2022-12-10T11:01:01;101149.03;;;1.03;87.87
45523;BME280;31254;51.680;5.394;2022-12-10T11:03:30;101145.25;;;1.07;87.88
45523;BME280;31254;51.680;5.394;2022-12-10T11:05:59;101135.38;;;1.07;87.86
45523;BME280;31254;51.680;5.394;2022-12-10T11:08:30;101146.19;;;1.06;87.93
45523;BME280;31254;51.680;5.394;2022-12-10T11:11:03;101144.38;;;1.06;87.38
45523;BME280;31254;51.680;5.394;2022-12-10T11:13:34;101133.09;;;1.00;87.59
45523;BME280;31254;51.680;5.394;2022-12-10T11:16:22;101138.84;;;1.09;87.51
45523;BME280;31254;51.680;5.394;2022-12-10T11:19:01;101138.91;;;1.08;87.80
45523;BME280;31254;51.680;5.394;2022-12-10T11:21:30;101139.69;;;1.10;87.51
45523;BME280;31254;51.680;5.394;2022-12-10T11:23:58;101144.91;;;1.13;87.56
45523;BME280;31254;51.680;5.394;2022-12-10T11:35:01;101133.50;;;1.25;87.58
45523;BME280;31254;51.680;5.394;2022-12-10T11:57:04;101125.72;;;1.37;87.78
45523;BME280;31254;51.680;5.394;2022-12-10T11:59:54;101138.84;;;1.43;87.79
45523;BME280;31254;51.680;5.394;2022-12-10T12:10:55;101140.88;;;1.22;87.17
45523;BME280;31254;51.680;5.394;2022-12-10T12:13:28;101141.03;;;1.19;87.56
45523;BME280;31254;51.680;5.394;2022-12-10T12:16:04;101144.59;;;1.19;87.67
45523;BME280;31254;51.680;5.394;2022-12-10T12:18:43;101147.13;;;1.22;87.75
45523;BME280;31254;51.680;5.394;2022-12-10T12:21:14;101139.69;;;1.10;87.68
45523;BME280;31254;51.680;5.394;2022-12-10T12:24:20;101134.91;;;0.99;87.72
45523;BME280;31254;51.680;5.394;2022-12-10T12:26:41;101134.84;;;1.01;87.54
45523;BME280;31254;51.680;5.394;2022-12-10T12:29:25;101136.22;;;1.08;87.65
45523;BME280;31254;51.680;5.394;2022-12-10T12:31:57;101137.00;;;1.10;88.12
45523;BME280;31254;51.680;5.394;2022-12-10T12:37:17;101135.06;;;1.14;87.58
45523;BME280;31254;51.680;5.394;2022-12-10T12:42:38;101126.81;;;1.17;87.76
45523;BME280;31254;51.680;5.394;2022-12-10T12:45:20;101131.16;;;1.19;88.25
45523;BME280;31254;51.680;5.394;2022-12-10T12:50:46;101127.97;;;1.28;88.03
45523;BME280;31254;51.680;5.394;2022-12-10T12:53:16;101123.28;;;1.32;87.89
45523;BME280;31254;51.680;5.394;2022-12-10T12:56:01;101129.34;;;1.36;88.17
45523;BME280;31254;51.680;5.394;2022-12-10T12:58:52;101132.78;;;1.39;87.91
45523;BME280;31254;51.680;5.394;2022-12-10T13:01:53;101130.25;;;1.36;87.52
45523;BME280;31254;51.680;5.394;2022-12-10T13:04:25;101124.78;;;1.38;87.92
45523;BME280;31254;51.680;5.394;2022-12-10T13:09:48;101135.34;;;1.41;87.43
45523;BME280;31254;51.680;5.394;2022-12-10T13:12:29;101136.47;;;1.37;88.22
45523;BME280;31254;51.680;5.394;2022-12-10T13:17:32;101136.31;;;1.40;87.92
45523;BME280;31254;51.680;5.394;2022-12-10T13:20:29;101131.81;;;1.40;87.95
45523;BME280;31254;51.680;5.394;2022-12-10T13:36:36;101143.72;;;1.19;88.53
45523;BME280;31254;51.680;5.394;2022-12-10T13:41:34;101149.44;;;1.13;88.52
45523;BME280;31254;51.680;5.394;2022-12-10T13:50:06;101163.03;;;1.09;88.34
45523;BME280;31254;51.680;5.394;2022-12-10T13:55:38;101160.09;;;1.14;88.59
45523;BME280;31254;51.680;5.394;2022-12-10T14:00:39;101159.25;;;1.14;88.42
45523;BME280;31254;51.680;5.394;2022-12-10T14:06:19;101170.38;;;1.06;88.45
45523;BME280;31254;51.680;5.394;2022-12-10T14:09:00;101173.06;;;1.06;88.20
45523;BME280;31254;51.680;5.394;2022-12-10T14:11:37;101175.06;;;1.02;88.14
45523;BME280;31254;51.680;5.394;2022-12-10T14:14:11;101169.91;;;0.98;88.11
45523;BME280;31254;51.680;5.394;2022-12-10T14:16:40;101171.00;;;0.94;88.46
45523;BME280;31254;51.680;5.394;2022-12-10T14:19:12;101163.94;;;0.93;88.49
45523;BME280;31254;51.680;5.394;2022-12-10T14:21:42;101166.53;;;0.94;88.79
45523;BME280;31254;51.680;5.394;2022-12-10T14:24:38;101159.19;;;0.80;88.26
45523;BME280;31254;51.680;5.394;2022-12-10T14:27:25;101177.75;;;0.85;88.53
45523;BME280;31254;51.680;5.394;2022-12-10T14:30:20;101190.25;;;0.86;88.47
45523;BME280;31254;51.680;5.394;2022-12-10T14:32:45;101189.34;;;0.85;88.54
45523;BME280;31254;51.680;5.394;2022-12-10T14:35:19;101186.75;;;0.84;88.75
45523;BME280;31254;51.680;5.394;2022-12-10T14:37:52;101177.19;;;0.78;89.03
45523;BME280;31254;51.680;5.394;2022-12-10T14:40:35;101182.41;;;0.81;88.84
45523;BME280;31254;51.680;5.394;2022-12-10T14:43:06;101178.75;;;0.82;88.46
45523;BME280;31254;51.680;5.394;2022-12-10T14:45:53;101184.06;;;0.84;88.81
45523;BME280;31254;51.680;5.394;2022-12-10T14:48:23;101178.84;;;0.81;88.68
45523;BME280;31254;51.680;5.394;2022-12-10T14:50:51;101179.81;;;0.80;88.74
45523;BME280;31254;51.680;5.394;2022-12-10T14:53:28;101184.94;;;0.84;89.04
45523;BME280;31254;51.680;5.394;2022-12-10T14:56:05;101182.19;;;0.86;88.84
45523;BME280;31254;51.680;5.394;2022-12-10T14:58:47;101181.22;;;0.87;89.16
45523;BME280;31254;51.680;5.394;2022-12-10T15:01:29;101183.75;;;0.90;88.88
45523;BME280;31254;51.680;5.394;2022-12-10T15:03:59;101170.47;;;0.87;89.04
45523;BME280;31254;51.680;5.394;2022-12-10T15:06:27;101181.84;;;0.92;88.88
45523;BME280;31254;51.680;5.394;2022-12-10T15:08:56;101181.75;;;0.94;89.00
45523;BME280;31254;51.680;5.394;2022-12-10T15:11:25;101179.88;;;0.96;89.62
45523;BME280;31254;51.680;5.394;2022-12-10T15:13:58;101178.91;;;0.97;88.98
45523;BME280;31254;51.680;5.394;2022-12-10T15:16:40;101147.72;;;0.77;89.08